createdAt,value
2023-01-19T00:01:38.669Z,10.73
2023-01-19T00:04:09.685Z,11.27
2023-01-19T00:06:40.425Z,9.73
2023-01-19T00:09:11.213Z,10.30
2023-01-19T00:11:42.731Z,10.30
2023-01-19T00:14:13.805Z,10.52
2023-01-19T00:16:47.530Z,10.70
2023-01-19T00:19:18.789Z,9.10
2023-01-19T00:21:49.552Z,9.75
2023-01-19T00:24:20.277Z,10.35
2023-01-19T00:26:51.049Z,10.43
2023-01-19T00:29:21.907Z,9.88
2023-01-19T00:31:55.341Z,10.10
2023-01-19T00:34:26.763Z,10.70
2023-01-19T00:36:57.872Z,9.30
2023-01-19T00:39:28.563Z,10.00
2023-01-19T00:42:11.888Z,10.30
2023-01-19T00:44:45.931Z,10.00
2023-01-19T00:47:21.892Z,10.73
2023-01-19T00:49:52.702Z,11.00
2023-01-19T00:52:23.887Z,9.85
2023-01-19T00:54:54.651Z,9.75
2023-01-19T00:57:27.098Z,11.00
2023-01-19T00:59:59.097Z,9.95
2023-01-19T01:02:34.669Z,9.60
2023-01-19T01:05:06.207Z,10.17
2023-01-19T01:07:41.296Z,10.75
2023-01-19T01:10:17.708Z,10.87
2023-01-19T01:12:57.696Z,10.02
2023-01-19T01:15:39.750Z,9.70
2023-01-19T01:18:13.592Z,9.40
2023-01-19T01:20:44.327Z,10.43
2023-01-19T01:23:23.243Z,9.35
2023-01-19T01:25:54.035Z,10.15
2023-01-19T01:28:26.034Z,9.60
2023-01-19T01:30:57.504Z,10.33
2023-01-19T01:33:40.835Z,10.07
2023-01-19T01:36:13.526Z,9.90
2023-01-19T01:38:44.917Z,9.57
2023-01-19T01:41:16.217Z,9.73
2023-01-19T01:43:49.103Z,9.45
2023-01-19T01:46:20.814Z,9.57
2023-01-19T01:49:00.582Z,10.70
2023-01-19T01:51:35.243Z,10.57
2023-01-19T01:54:18.033Z,9.80
2023-01-19T01:56:51.242Z,9.45
2023-01-19T01:59:31.673Z,9.75
2023-01-19T02:02:19.820Z,8.63
2023-01-19T02:04:56.699Z,9.60
2023-01-19T02:07:50.618Z,9.80
2023-01-19T02:10:36.868Z,9.80
2023-01-19T02:13:21.940Z,9.68
2023-01-19T02:15:54.891Z,10.82
2023-01-19T02:18:31.003Z,9.10
2023-01-19T02:21:12.837Z,9.90
2023-01-19T02:23:49.414Z,10.07
2023-01-19T02:26:22.918Z,9.20
2023-01-19T02:28:57.481Z,10.47
2023-01-19T02:31:32.738Z,9.40
2023-01-19T02:34:04.862Z,10.43
2023-01-19T02:36:41.279Z,10.75
2023-01-19T02:39:19.454Z,9.60
2023-01-19T02:41:56.814Z,9.15
2023-01-19T02:44:30.518Z,10.82
2023-01-19T02:47:01.272Z,9.80
2023-01-19T02:49:36.696Z,10.60
2023-01-19T02:52:07.697Z,10.10
2023-01-19T02:54:56.388Z,9.60
2023-01-19T02:57:42.718Z,9.60
2023-01-19T03:00:24.931Z,9.13
2023-01-19T03:03:18.986Z,8.95
2023-01-19T03:06:05.310Z,8.85
2023-01-19T03:08:47.858Z,9.43
2023-01-19T03:11:22.973Z,9.32
2023-01-19T03:13:56.809Z,9.18
2023-01-19T03:16:33.071Z,9.00
2023-01-19T03:19:08.859Z,9.63
2023-01-19T03:21:42.872Z,8.75
2023-01-19T03:24:16.548Z,8.82
2023-01-19T03:26:56.497Z,8.02
2023-01-19T03:29:32.105Z,8.70
2023-01-19T03:32:05.742Z,8.30
2023-01-19T03:34:38.108Z,8.52
2023-01-19T03:37:14.808Z,9.03
2023-01-19T03:39:45.825Z,8.85
2023-01-19T03:42:20.743Z,8.90
2023-01-19T03:44:53.727Z,8.77
2023-01-19T03:47:25.470Z,8.57
2023-01-19T03:49:57.321Z,7.80
2023-01-19T03:52:33.564Z,8.40
2023-01-19T03:55:09.808Z,8.10
2023-01-19T03:57:44.132Z,8.77
2023-01-19T04:00:16.684Z,7.70
2023-01-19T04:02:47.470Z,8.20
2023-01-19T04:05:19.155Z,8.88
2023-01-19T04:07:52.413Z,8.20
2023-01-19T04:10:23.909Z,8.30
2023-01-19T04:13:10.709Z,8.07
2023-01-19T04:15:48.559Z,7.80
2023-01-19T04:18:19.660Z,7.00
2023-01-19T04:20:50.561Z,7.13
2023-01-19T04:23:21.366Z,8.00
2023-01-19T04:26:00.663Z,7.83
2023-01-19T04:28:35.152Z,8.00
2023-01-19T04:31:06.462Z,7.22
2023-01-19T04:33:37.922Z,8.30
2023-01-19T04:36:09.682Z,8.20
2023-01-19T04:38:40.417Z,8.27
2023-01-19T04:41:11.154Z,7.78
2023-01-19T04:43:45.037Z,8.80
2023-01-19T04:46:18.645Z,7.75
2023-01-19T04:48:49.883Z,7.90
2023-01-19T04:51:23.539Z,8.35
2023-01-19T04:53:57.822Z,9.00
2023-01-19T04:56:28.931Z,9.48
2023-01-19T04:59:05.413Z,9.07
2023-01-19T05:01:36.983Z,7.97
2023-01-19T05:04:08.515Z,9.63
2023-01-19T05:06:39.256Z,9.77
2023-01-19T05:09:15.873Z,9.13
2023-01-19T05:11:46.831Z,9.32
2023-01-19T05:14:20.359Z,9.07
2023-01-19T05:16:51.179Z,9.23
2023-01-19T05:19:22.041Z,8.80
2023-01-19T05:21:52.760Z,9.43
2023-01-19T05:24:23.797Z,10.18
2023-01-19T05:26:54.609Z,9.27
2023-01-19T05:29:28.131Z,9.32
2023-01-19T05:31:59.156Z,8.35
2023-01-19T05:34:31.423Z,8.55
2023-01-19T05:37:02.517Z,8.18
2023-01-19T05:39:33.543Z,9.05
2023-01-19T05:42:04.392Z,9.05
2023-01-19T05:44:39.713Z,7.63
2023-01-19T05:47:10.521Z,7.65
2023-01-19T05:49:48.981Z,8.80
2023-01-19T05:52:22.590Z,8.63
2023-01-19T05:54:55.155Z,7.55
2023-01-19T05:57:26.340Z,7.80
2023-01-19T06:00:01.311Z,8.57
2023-01-19T06:02:32.501Z,7.85
2023-01-19T06:05:03.888Z,8.23
2023-01-19T06:07:34.714Z,8.43
2023-01-19T06:10:05.457Z,9.20
2023-01-19T06:12:36.266Z,8.43
2023-01-19T06:15:10.754Z,8.60
2023-01-19T06:17:44.622Z,7.57
2023-01-19T06:20:19.022Z,7.43
2023-01-19T06:22:50.292Z,8.60
2023-01-19T06:25:21.103Z,8.10
2023-01-19T06:27:51.886Z,8.38
2023-01-19T06:30:26.050Z,8.18
2023-01-19T06:32:56.747Z,7.05
2023-01-19T06:35:27.741Z,8.35
2023-01-19T06:38:01.038Z,7.65
2023-01-19T06:40:34.396Z,7.90
2023-01-19T06:43:05.522Z,6.88
2023-01-19T06:45:39.456Z,6.40
2023-01-19T06:48:11.380Z,6.47
2023-01-19T06:50:42.220Z,5.82
2023-01-19T06:53:13.245Z,6.63
2023-01-19T06:55:44.661Z,6.00
2023-01-19T06:58:18.798Z,6.45
2023-01-19T07:00:52.581Z,7.20
2023-01-19T07:03:25.773Z,5.47
2023-01-19T07:05:57.340Z,6.03
2023-01-19T07:08:28.107Z,4.57
2023-01-19T07:11:25.848Z,5.30
2023-01-19T07:13:57.790Z,5.82
2023-01-19T07:16:31.456Z,5.82
2023-01-19T07:19:02.226Z,5.80
2023-01-19T07:21:35.875Z,5.18
2023-01-19T07:24:07.189Z,4.97
2023-01-19T07:26:37.949Z,4.53
2023-01-19T07:29:08.720Z,4.43
2023-01-19T07:31:42.833Z,5.10
2023-01-19T07:34:15.991Z,4.50
2023-01-19T07:36:47.028Z,4.50
2023-01-19T07:39:18.066Z,4.47
2023-01-19T07:41:51.024Z,4.82
2023-01-19T07:44:21.871Z,4.65
2023-01-19T07:46:55.382Z,4.50
2023-01-19T07:49:27.344Z,4.53
2023-01-19T07:51:58.706Z,5.47
2023-01-19T07:54:29.811Z,5.00
2023-01-19T07:57:00.852Z,5.75
2023-01-19T07:59:32.375Z,6.00
2023-01-19T08:02:05.908Z,7.72
2023-01-19T08:04:37.175Z,7.63
2023-01-19T08:07:08.039Z,6.45
2023-01-19T08:09:38.804Z,7.30
2023-01-19T08:12:10.053Z,6.85
2023-01-19T08:14:43.730Z,7.32
2023-01-19T08:17:19.521Z,9.32
2023-01-19T08:19:50.568Z,7.80
2023-01-19T08:22:21.350Z,10.00
2023-01-19T08:24:52.129Z,9.88
2023-01-19T08:27:23.569Z,8.90
2023-01-19T08:29:56.836Z,9.70
2023-01-19T08:32:30.310Z,9.68
2023-01-19T08:35:01.176Z,10.32
2023-01-19T08:37:34.160Z,10.50
2023-01-19T08:40:05.047Z,9.90
2023-01-19T08:42:35.916Z,9.82
2023-01-19T08:45:07.927Z,10.00
2023-01-19T08:47:41.520Z,10.93
2023-01-19T08:50:14.021Z,10.60
2023-01-19T08:52:44.784Z,10.43
2023-01-19T08:55:15.688Z,10.50
2023-01-19T08:57:46.532Z,10.25
2023-01-19T09:00:18.524Z,10.68
2023-01-19T09:02:51.885Z,10.65
2023-01-19T09:05:25.803Z,10.45
2023-01-19T09:07:56.663Z,11.63
2023-01-19T09:10:28.344Z,11.20
2023-01-19T09:12:59.062Z,11.80
2023-01-19T09:15:30.045Z,12.80
2023-01-19T09:18:03.770Z,12.68
2023-01-19T09:20:36.317Z,12.65
2023-01-19T09:23:10.719Z,13.65
2023-01-19T09:25:42.273Z,13.57
2023-01-19T09:28:15.319Z,13.85
2023-01-19T09:30:47.321Z,14.77
2023-01-19T09:33:22.172Z,14.90
2023-01-19T09:35:56.765Z,15.40
2023-01-19T09:38:31.515Z,15.52
2023-01-19T09:41:04.587Z,16.20
2023-01-19T09:43:40.555Z,15.98
2023-01-19T09:46:16.947Z,15.77
2023-01-19T09:48:54.302Z,17.80
2023-01-19T09:51:26.954Z,19.10
2023-01-19T09:54:10.969Z,17.70
2023-01-19T09:56:42.502Z,17.27
2023-01-19T09:59:23.743Z,18.60
2023-01-19T10:02:21.977Z,17.83
2023-01-19T10:05:02.490Z,20.50
2023-01-19T10:07:55.930Z,19.10
2023-01-19T10:10:30.078Z,18.75
2023-01-19T10:13:17.539Z,19.20
2023-01-19T10:15:56.214Z,18.23
2023-01-19T10:18:34.586Z,19.20
2023-01-19T10:21:14.537Z,18.00
2023-01-19T10:23:49.818Z,17.98
2023-01-19T10:26:25.722Z,17.37
2023-01-19T10:28:59.842Z,18.53
2023-01-19T10:31:30.807Z,18.60
2023-01-19T10:34:01.659Z,18.00
2023-01-19T10:36:38.535Z,18.60
2023-01-19T10:39:19.105Z,18.83
2023-01-19T10:41:53.774Z,20.30
2023-01-19T10:44:29.912Z,19.75
2023-01-19T10:47:02.971Z,19.85
2023-01-19T10:49:40.279Z,19.50
2023-01-19T10:52:24.088Z,20.83
2023-01-19T10:54:54.930Z,20.83
2023-01-19T10:57:30.877Z,19.37
2023-01-19T11:00:01.961Z,20.83
2023-01-19T11:02:34.591Z,21.13
2023-01-19T11:05:25.219Z,20.88
2023-01-19T11:07:58.958Z,21.15
2023-01-19T11:10:31.130Z,20.75
2023-01-19T11:13:07.719Z,20.50
2023-01-19T11:15:47.395Z,22.33
2023-01-19T11:18:27.480Z,23.50
2023-01-19T11:21:01.046Z,23.57
2023-01-19T11:23:41.978Z,22.00
2023-01-19T11:26:18.465Z,23.40
2023-01-19T11:28:53.255Z,22.67
2023-01-19T11:31:35.600Z,22.30
2023-01-19T11:34:08.305Z,22.83
2023-01-19T11:36:39.551Z,24.77
2023-01-19T11:39:25.539Z,24.50
2023-01-19T11:41:58.991Z,23.03
2023-01-19T11:44:33.520Z,23.50
2023-01-19T11:47:06.272Z,23.43
2023-01-19T11:49:46.997Z,25.37
2023-01-19T11:52:31.000Z,23.87
2023-01-19T11:55:09.667Z,22.53
2023-01-19T11:57:46.450Z,24.50
2023-01-19T12:00:31.307Z,23.00
2023-01-19T12:03:09.819Z,22.70
2023-01-19T12:05:48.075Z,23.00
2023-01-19T12:08:23.808Z,24.00
2023-01-19T12:11:00.295Z,24.50
2023-01-19T12:13:34.755Z,25.13
2023-01-19T12:16:10.201Z,25.00
2023-01-19T12:18:44.944Z,25.20
2023-01-19T12:21:17.242Z,25.30
2023-01-19T12:23:58.971Z,25.23
2023-01-19T12:26:38.590Z,24.03
2023-01-19T12:29:14.463Z,24.27
2023-01-19T12:31:45.610Z,23.70
2023-01-19T12:34:42.264Z,25.43
2023-01-19T12:37:37.306Z,24.97
2023-01-19T12:40:26.317Z,24.20
2023-01-19T12:43:07.411Z,22.80
2023-01-19T12:45:40.158Z,25.33
2023-01-19T12:48:27.403Z,25.37
2023-01-19T12:51:00.338Z,25.83
2023-01-19T12:53:54.965Z,25.00
2023-01-19T12:56:32.555Z,28.27
2023-01-19T12:59:07.237Z,26.60
2023-01-19T13:01:38.612Z,26.87
2023-01-19T13:04:32.908Z,25.97
2023-01-19T13:07:18.015Z,26.10
2023-01-19T13:09:51.668Z,25.07
2023-01-19T13:12:27.546Z,23.60
2023-01-19T13:15:36.921Z,25.13
2023-01-19T13:18:07.953Z,23.47
2023-01-19T13:20:48.755Z,25.00
2023-01-19T13:23:28.329Z,23.50
2023-01-19T13:26:08.490Z,24.20
2023-01-19T13:28:44.255Z,24.60
2023-01-19T13:31:18.993Z,25.57
2023-01-19T13:33:53.433Z,26.17
2023-01-19T13:36:35.208Z,24.50
2023-01-19T13:39:08.755Z,25.97
2023-01-19T13:41:44.371Z,24.27
2023-01-19T13:44:20.114Z,24.00
2023-01-19T13:46:54.659Z,23.77
2023-01-19T13:49:31.190Z,25.00
2023-01-19T13:52:19.279Z,23.43
2023-01-19T13:54:53.217Z,24.67
2023-01-19T13:57:28.523Z,23.53
2023-01-19T14:00:18.094Z,24.70
2023-01-19T14:03:03.163Z,23.53
2023-01-19T14:05:35.931Z,24.30
2023-01-19T14:08:15.051Z,23.40
2023-01-19T14:10:48.163Z,23.80
2023-01-19T14:13:21.403Z,24.23
2023-01-19T14:16:00.006Z,22.77
2023-01-19T14:18:35.323Z,23.67
2023-01-19T14:21:09.847Z,22.53
2023-01-19T14:23:47.140Z,23.30
2023-01-19T14:26:43.500Z,22.47
2023-01-19T14:29:20.005Z,22.20
2023-01-19T14:31:52.983Z,22.03
2023-01-19T14:34:39.300Z,20.98
2023-01-19T14:37:19.896Z,21.00
2023-01-19T14:39:54.332Z,21.70
2023-01-19T14:42:30.225Z,21.50
2023-01-19T14:45:03.660Z,21.00
2023-01-19T14:47:38.532Z,20.67
2023-01-19T14:50:23.640Z,20.50
2023-01-19T14:52:59.010Z,21.30
2023-01-19T14:55:36.591Z,21.33
2023-01-19T14:58:13.296Z,21.37
2023-01-19T15:00:44.391Z,19.65
2023-01-19T15:03:15.748Z,20.83
2023-01-19T15:05:53.231Z,18.90
2023-01-19T15:08:33.097Z,19.00
2023-01-19T15:11:11.663Z,18.97
2023-01-19T15:13:44.247Z,18.47
2023-01-19T15:16:15.257Z,16.50
2023-01-19T15:18:46.014Z,18.07
2023-01-19T15:21:23.669Z,16.10
2023-01-19T15:23:55.042Z,16.67
2023-01-19T15:26:27.621Z,17.37
2023-01-19T15:28:59.323Z,16.70
2023-01-19T15:31:32.041Z,15.93
2023-01-19T15:34:05.439Z,15.50
2023-01-19T15:36:38.855Z,15.50
2023-01-19T15:39:10.070Z,16.60
2023-01-19T15:41:42.164Z,16.30
2023-01-19T15:44:13.767Z,16.00
2023-01-19T15:46:47.470Z,16.67
2023-01-19T15:49:18.492Z,14.50
2023-01-19T15:51:51.796Z,16.67
2023-01-19T15:54:22.867Z,16.27
2023-01-19T15:56:53.626Z,15.57
2023-01-19T15:59:24.481Z,15.60
2023-01-19T16:01:55.494Z,15.30
2023-01-19T16:04:28.669Z,15.27
2023-01-19T16:07:02.368Z,15.10
2023-01-19T16:09:33.305Z,17.70
2023-01-19T16:12:04.825Z,15.00
2023-01-19T16:14:36.708Z,15.30
2023-01-19T16:17:07.533Z,15.87
2023-01-19T16:19:38.264Z,15.00
2023-01-19T16:22:11.950Z,15.60
2023-01-19T16:24:42.846Z,16.00
2023-01-19T16:27:13.692Z,17.73
2023-01-19T16:29:46.780Z,19.42
2023-01-19T16:32:17.844Z,17.20
2023-01-19T16:34:51.711Z,15.07
2023-01-19T16:37:27.254Z,15.90
2023-01-19T16:39:59.038Z,16.40
2023-01-19T16:42:32.469Z,15.53
2023-01-19T16:45:08.190Z,15.77
2023-01-19T16:47:39.745Z,14.32
2023-01-19T16:50:13.528Z,14.95
2023-01-19T16:52:47.453Z,16.63
2023-01-19T16:55:18.343Z,15.65
2023-01-19T16:57:49.221Z,17.77
2023-01-19T17:00:23.717Z,15.70
2023-01-19T17:02:54.577Z,17.80
2023-01-19T17:05:25.297Z,17.30
2023-01-19T17:07:58.737Z,16.47
2023-01-19T17:10:29.460Z,15.67
2023-01-19T17:13:00.468Z,15.40
2023-01-19T17:15:35.975Z,14.73
2023-01-19T17:18:07.058Z,15.13
2023-01-19T17:20:37.879Z,13.60
2023-01-19T17:23:14.117Z,15.25
2023-01-19T17:25:59.126Z,15.67
2023-01-19T17:28:29.855Z,15.15
2023-01-19T17:31:07.186Z,16.67
2023-01-19T17:33:38.294Z,16.10
2023-01-19T17:36:12.488Z,17.03
2023-01-19T17:38:45.954Z,15.48
2023-01-19T17:41:20.295Z,16.60
2023-01-19T17:43:52.545Z,16.58
2023-01-19T17:46:25.594Z,17.57
2023-01-19T17:48:57.781Z,17.00
2023-01-19T17:51:32.477Z,15.85
2023-01-19T17:54:06.539Z,16.00
2023-01-19T17:56:41.314Z,17.97
2023-01-19T17:59:12.319Z,19.50
2023-01-19T18:01:45.588Z,18.90
2023-01-19T18:04:18.643Z,19.52
2023-01-19T18:06:50.193Z,20.35
2023-01-19T18:09:23.616Z,18.98
2023-01-19T18:11:54.386Z,19.67
2023-01-19T18:14:25.166Z,19.40
2023-01-19T18:16:56.196Z,20.13
2023-01-19T18:19:27.147Z,18.17
2023-01-19T18:21:58.054Z,18.50
2023-01-19T18:24:31.474Z,18.35
2023-01-19T18:27:04.683Z,18.70
2023-01-19T18:29:35.551Z,18.20
2023-01-19T18:32:06.402Z,17.63
2023-01-19T18:34:37.436Z,17.92
2023-01-19T18:37:08.270Z,19.67
2023-01-19T18:39:44.159Z,17.55
2023-01-19T18:42:15.296Z,17.40
2023-01-19T18:44:48.901Z,20.30
2023-01-19T18:47:19.713Z,18.92
2023-01-19T18:49:52.684Z,18.80
2023-01-19T18:52:23.420Z,16.90
2023-01-19T18:55:00.034Z,17.33
2023-01-19T18:57:30.951Z,20.00
2023-01-19T19:00:01.899Z,20.13
2023-01-19T19:02:32.657Z,19.02
2023-01-19T19:05:03.670Z,20.88
2023-01-19T19:07:34.420Z,20.90
2023-01-19T19:10:09.009Z,20.40
2023-01-19T19:12:39.819Z,20.58
2023-01-19T19:15:18.949Z,20.75
2023-01-19T19:17:52.156Z,20.90
2023-01-19T19:20:23.484Z,20.85
2023-01-19T19:22:54.474Z,17.67
2023-01-19T19:25:28.019Z,19.98
2023-01-19T19:27:58.724Z,19.25
2023-01-19T19:30:31.719Z,19.45
2023-01-19T19:33:02.540Z,20.08
2023-01-19T19:35:36.091Z,20.33
2023-01-19T19:38:07.523Z,18.48
2023-01-19T19:40:43.581Z,18.67
2023-01-19T19:43:14.427Z,19.38
2023-01-19T19:45:45.313Z,16.23
2023-01-19T19:48:16.478Z,16.40
2023-01-19T19:50:47.425Z,18.70
2023-01-19T19:53:20.407Z,17.13
2023-01-19T19:56:03.789Z,15.48
2023-01-19T19:58:34.894Z,15.25
2023-01-19T20:01:12.159Z,15.50
2023-01-19T20:03:43.423Z,15.50
2023-01-19T20:06:16.393Z,14.33
2023-01-19T20:08:50.752Z,16.08
2023-01-19T20:11:25.816Z,16.70
2023-01-19T20:13:57.354Z,15.83
2023-01-19T20:16:28.372Z,15.93
2023-01-19T20:18:59.261Z,17.23
2023-01-19T20:21:31.543Z,16.27
2023-01-19T20:24:04.191Z,17.98
2023-01-19T20:26:41.574Z,16.40
2023-01-19T20:29:16.071Z,15.25
2023-01-19T20:31:48.703Z,16.37
2023-01-19T20:34:22.033Z,16.40
2023-01-19T20:36:54.023Z,17.67
2023-01-19T20:39:26.781Z,16.45
2023-01-19T20:42:00.170Z,17.13
2023-01-19T20:44:30.970Z,16.67
2023-01-19T20:47:02.220Z,16.27
2023-01-19T20:49:33.305Z,16.67
2023-01-19T20:52:04.063Z,17.57
2023-01-19T20:54:34.867Z,17.90
2023-01-19T20:57:08.487Z,20.40
2023-01-19T20:59:40.930Z,16.97
2023-01-19T21:02:15.204Z,17.03
2023-01-19T21:04:49.423Z,15.67
2023-01-19T21:07:20.153Z,16.60
2023-01-19T21:09:50.837Z,15.95
2023-01-19T21:12:24.227Z,16.25
2023-01-19T21:14:55.061Z,16.25
2023-01-19T21:17:25.928Z,15.37
2023-01-19T21:20:01.164Z,16.50
2023-01-19T21:22:31.901Z,18.23
2023-01-19T21:25:02.909Z,20.23
2023-01-19T21:27:36.533Z,18.80
2023-01-19T21:30:08.204Z,16.00
2023-01-19T21:32:38.892Z,16.13
2023-01-19T21:35:11.018Z,15.27
2023-01-19T21:37:44.873Z,16.95
2023-01-19T21:40:16.248Z,16.07
2023-01-19T21:42:49.711Z,15.73
2023-01-19T21:45:20.582Z,15.90
2023-01-19T21:47:51.539Z,15.43
2023-01-19T21:50:25.763Z,16.10
2023-01-19T21:53:00.287Z,16.50
2023-01-19T21:55:31.352Z,17.20
2023-01-19T21:58:04.900Z,18.33
2023-01-19T22:00:35.680Z,15.83
2023-01-19T22:03:06.550Z,15.67
2023-01-19T22:05:37.609Z,16.50
2023-01-19T22:08:09.553Z,16.70
2023-01-19T22:10:40.476Z,15.03
2023-01-19T22:13:14.110Z,17.17
2023-01-19T22:15:44.963Z,16.03
2023-01-19T22:18:17.612Z,15.48
2023-01-19T22:20:48.283Z,15.77
2023-01-19T22:23:19.143Z,17.52
2023-01-19T22:25:49.917Z,15.80
2023-01-19T22:28:23.322Z,15.43
2023-01-19T22:30:55.745Z,15.50
2023-01-19T22:33:26.571Z,15.77
2023-01-19T22:35:57.357Z,16.43
2023-01-19T22:38:28.224Z,16.23
2023-01-19T22:40:59.145Z,16.63
2023-01-19T22:43:32.476Z,17.37
2023-01-19T22:46:13.611Z,16.63
2023-01-19T22:48:49.406Z,17.13
2023-01-19T22:51:21.297Z,16.10
2023-01-19T22:53:55.417Z,15.57
2023-01-19T22:56:27.667Z,16.47
2023-01-19T22:59:01.653Z,16.33
2023-01-19T23:01:37.825Z,15.80
2023-01-19T23:04:10.420Z,16.80
2023-01-19T23:06:41.483Z,16.00
2023-01-19T23:09:15.237Z,17.13
2023-01-19T23:11:50.266Z,16.53
2023-01-19T23:14:25.150Z,17.00
2023-01-19T23:16:55.933Z,17.93
2023-01-19T23:19:26.879Z,18.80
2023-01-19T23:21:57.756Z,17.90
2023-01-19T23:24:28.506Z,18.43
2023-01-19T23:27:00.440Z,17.97
2023-01-19T23:29:36.379Z,18.90
2023-01-19T23:32:07.681Z,18.13
2023-01-19T23:34:38.499Z,19.40
2023-01-19T23:37:09.232Z,18.90
2023-01-19T23:39:39.942Z,19.93
2023-01-19T23:42:10.749Z,20.48
2023-01-19T23:44:44.180Z,19.43
2023-01-19T23:47:14.927Z,19.90
2023-01-19T23:49:45.691Z,20.35
2023-01-19T23:52:21.620Z,20.98
2023-01-19T23:54:52.510Z,21.13
2023-01-19T23:57:23.306Z,22.10
2023-01-19T23:59:56.747Z,21.77
